Time;durP1;ratioP1;P1;durP2;ratioP2;P2;SDS_P1;SDS_P2;PMS_P1;PMS_P2;Temp;Humidity;BMP_temperature;BMP_pressure;BME280_temperature;BME280_humidity;BME280_pressure;Samples;Min_cycle;Max_cycle;Signal;HPM_P1;HPM_P2
2023/11/29 00:00:27;;;;;;;3.50;0.60;;;;;;;-2.81;100.00;94931.59;1031063;28;20061;-74
2023/11/29 00:00:58;;;;;;;0.20;0.20;;;;;;;-2.83;100.00;94934.34;1026820;28;20031;-74
2023/11/29 00:01:28;;;;;;;1.50;0.63;;;;;;;-2.87;100.00;94939.09;1026877;28;20023;-75
2023/11/29 00:01:59;;;;;;;0.50;0.50;;;;;;;-2.90;100.00;94936.91;1026688;28;20058;-75
2023/11/29 00:02:29;;;;;;;0.10;0.10;;;;;;;-2.89;100.00;94932.56;1022770;28;20024;-73
2023/11/29 00:02:59;;;;;;;1.67;0.73;;;;;;;-2.89;100.00;94933.34;1026979;28;20524;-74
2023/11/29 00:03:30;;;;;;;0.50;0.50;;;;;;;-2.87;100.00;94930.59;1024983;28;20763;-74
2023/11/29 00:04:00;;;;;;;0.77;0.67;;;;;;;-2.93;100.00;94929.59;1027058;28;20047;-76
2023/11/29 00:04:31;;;;;;;0.30;0.30;;;;;;;-3.00;100.00;94920.34;1028077;28;20023;-75
2023/11/29 00:05:03;;;;;;;0.80;0.80;;;;;;;-2.97;100.00;94927.66;1028252;28;20046;-74
2023/11/29 00:05:33;;;;;;;0.45;0.45;;;;;;;-2.96;100.00;94931.78;1023060;28;20020;-75
2023/11/29 00:06:04;;;;;;;0.80;0.80;;;;;;;-2.96;100.00;94931.78;1019405;29;20048;-75
2023/11/29 00:06:34;;;;;;;0.87;0.87;;;;;;;-3.06;100.00;94926.25;1022847;29;20018;-76
2023/11/29 00:07:05;;;;;;;0.23;0.23;;;;;;;-3.00;100.00;94938.31;1019192;29;20020;-75
2023/11/29 00:07:36;;;;;;;0.40;0.40;;;;;;;-3.01;100.00;94923.91;1018835;29;20027;-75
2023/11/29 00:08:06;;;;;;;1.60;0.47;;;;;;;-3.01;100.00;94939.31;1014955;29;20064;-74
2023/11/29 00:08:37;;;;;;;0.77;0.77;;;;;;;-3.04;100.00;94930.22;1022947;29;20503;-74
2023/11/29 00:09:07;;;;;;;0.93;0.40;;;;;;;-3.09;100.00;94922.31;1026313;28;20019;-75
2023/11/29 00:09:38;;;;;;;0.20;0.20;;;;;;;-3.11;100.00;94924.31;1022995;28;20030;-75
2023/11/29 00:10:09;;;;;;;0.57;0.57;;;;;;;-3.20;100.00;94913.44;1023304;28;20023;-76
2023/11/29 00:10:40;;;;;;;0.20;0.20;;;;;;;-3.19;100.00;94919.34;1023000;29;20486;-75
2023/11/29 00:11:10;;;;;;;0.20;0.20;;;;;;;-3.20;100.00;94921.13;1023038;29;20020;-77
2023/11/29 00:11:41;;;;;;;0.63;0.63;;;;;;;-3.17;100.00;94925.88;1026433;28;20462;-75
2023/11/29 00:12:12;;;;;;;1.13;1.10;;;;;;;-3.15;100.00;94934.16;1026611;28;20029;-75
2023/11/29 00:12:43;;;;;;;0.45;0.45;;;;;;;-3.22;100.00;94923.13;1027509;28;20049;-76
2023/11/29 00:13:13;;;;;;;1.17;1.03;;;;;;;-3.19;100.00;94924.47;1026608;28;20053;-75
2023/11/29 00:13:44;;;;;;;0.27;0.27;;;;;;;-3.20;100.00;94931.38;1026064;28;20027;-75
2023/11/29 00:14:14;;;;;;;0.20;0.20;;;;;;;-3.23;100.00;94934.34;1033191;28;20081;-75
2023/11/29 00:14:44;;;;;;;0.57;0.57;;;;;;;-3.22;100.00;94933.38;1026775;28;20120;-75
2023/11/29 00:15:15;;;;;;;0.10;0.10;;;;;;;-3.22;100.00;94938.50;1015912;29;20032;-75
2023/11/29 00:15:46;;;;;;;0.40;0.40;;;;;;;-3.30;100.00;94918.16;1018715;28;20053;-75
2023/11/29 00:16:17;;;;;;;0.75;0.65;;;;;;;-3.25;100.00;94938.91;1023586;28;20028;-74
2023/11/29 00:16:47;;;;;;;0.63;0.63;;;;;;;-3.30;100.00;94931.00;1027214;28;20031;-73
2023/11/29 00:17:18;;;;;;;0.67;0.67;;;;;;;-3.29;100.00;94927.44;1030534;28;20519;-76
2023/11/29 00:17:49;;;;;;;0.77;0.77;;;;;;;-3.39;100.00;94924.47;1030559;28;20030;-77
2023/11/29 00:18:19;;;;;;;0.20;0.20;;;;;;;-3.38;100.00;94924.28;1024568;28;20436;-75
2023/11/29 00:18:50;;;;;;;0.60;0.47;;;;;;;-3.46;100.00;94919.31;1022925;29;20039;-75
2023/11/29 00:19:20;;;;;;;1.30;0.67;;;;;;;-3.43;100.00;94925.84;1026684;28;20800;-74
2023/11/29 00:19:51;;;;;;;1.40;1.30;;;;;;;-3.38;100.00;94934.53;1026762;28;20027;-75
2023/11/29 00:20:22;;;;;;;0.10;0.10;;;;;;;-3.42;100.00;94923.09;1026712;28;20031;-74
2023/11/29 00:20:53;;;;;;;0.45;0.45;;;;;;;-3.38;100.00;94933.75;1019399;28;20118;-75
2023/11/29 00:21:23;;;;;;;1.50;1.03;;;;;;;-3.41;100.00;94924.66;1027047;28;20038;-75
2023/11/29 00:21:54;;;;;;;0.60;0.60;;;;;;;-3.43;100.00;94921.50;1022052;28;20031;-75
2023/11/29 00:22:24;;;;;;;0.50;0.50;;;;;;;-3.40;100.00;94928.03;1026934;28;20023;-76
2023/11/29 00:22:55;;;;;;;0.20;0.20;;;;;;;-3.41;100.00;94924.66;1022782;29;20026;-75
2023/11/29 00:23:25;;;;;;;0.33;0.33;;;;;;;-3.46;100.00;94921.09;1025285;28;20428;-75
2023/11/29 00:23:55;;;;;;;1.10;0.80;;;;;;;-3.43;100.00;94929.19;1022715;28;20035;-75
2023/11/29 00:24:26;;;;;;;0.73;0.73;;;;;;;-3.43;100.00;94926.63;1022625;29;20023;-74
2023/11/29 00:24:56;;;;;;;0.17;0.17;;;;;;;-3.44;100.00;94925.06;1023170;29;20019;-75
2023/11/29 00:25:27;;;;;;;2.23;1.20;;;;;;;-3.44;100.00;94929.41;1022900;28;20415;-74
2023/11/29 00:25:57;;;;;;;0.27;0.27;;;;;;;-3.43;100.00;94933.53;1026883;28;20030;-75
2023/11/29 00:26:28;;;;;;;0.77;0.77;;;;;;;-3.45;100.00;94930.41;1031233;28;20045;-75
2023/11/29 00:26:58;;;;;;;0.57;0.50;;;;;;;-3.49;100.00;94931.75;1030878;28;20022;-76
2023/11/29 00:27:29;;;;;;;1.40;1.30;;;;;;;-3.51;100.00;94923.47;1024068;28;20028;-74
2023/11/29 00:27:59;;;;;;;0.30;0.30;;;;;;;-3.53;100.00;94920.31;1030879;28;20026;-75
2023/11/29 00:28:30;;;;;;;0.30;0.30;;;;;;;-3.49;100.00;94935.09;1020046;29;20025;-75
2023/11/29 00:29:00;;;;;;;0.37;0.37;;;;;;;-3.51;100.00;94936.31;1027092;28;20426;-77
2023/11/29 00:29:31;;;;;;;0.27;0.27;;;;;;;-3.53;100.00;94930.56;1033890;28;20025;-76
2023/11/29 00:30:01;;;;;;;0.10;0.10;;;;;;;-3.61;100.00;94916.94;1030836;28;20073;-74
2023/11/29 00:30:32;;;;;;;1.00;0.90;;;;;;;-3.57;100.00;94932.72;1030930;28;20010;-74
2023/11/29 00:31:03;;;;;;;0.73;0.63;;;;;;;-3.60;100.00;94931.34;1026627;28;20023;-76
2023/11/29 00:31:34;;;;;;;1.70;1.43;;;;;;;-3.63;100.00;94931.72;1022530;29;20411;-76
2023/11/29 00:32:05;;;;;;;0.20;0.20;;;;;;;-3.59;100.00;94937.25;1026804;28;20015;-75
2023/11/29 00:32:35;;;;;;;1.57;1.47;;;;;;;-3.66;100.00;94924.41;1026561;28;20110;-75
2023/11/29 00:33:05;;;;;;;0.70;0.70;;;;;;;-3.62;100.00;94938.44;1027262;28;20019;-75
2023/11/29 00:33:37;;;;;;;0.93;0.93;;;;;;;-3.60;100.00;94933.91;1026679;28;20069;-75
2023/11/29 00:34:07;;;;;;;0.10;0.10;;;;;;;-3.64;100.00;94930.16;1026948;28;20027;-74
2023/11/29 00:34:37;;;;;;;1.03;1.03;;;;;;;-3.68;100.00;94931.53;1030776;28;20381;-76
2023/11/29 00:35:08;;;;;;;0.60;0.60;;;;;;;-3.74;100.00;94927.16;1030890;28;20102;-74
2023/11/29 00:35:38;;;;;;;0.20;0.20;;;;;;;-3.72;100.00;94932.91;1034955;28;20450;-76
2023/11/29 00:36:09;;;;;;;0.53;0.53;;;;;;;-3.71;100.00;94934.47;1026593;28;20030;-76
2023/11/29 00:36:39;;;;;;;0.77;0.77;;;;;;;-3.71;100.00;94938.81;1026837;28;20087;-75
2023/11/29 00:37:10;;;;;;;0.30;0.30;;;;;;;-3.76;100.00;94926.56;1027244;28;20101;-76
2023/11/29 00:37:40;;;;;;;0.47;0.47;;;;;;;-3.72;100.00;94938.03;1021947;29;20118;-75
2023/11/29 00:38:11;;;;;;;0.97;0.97;;;;;;;-3.74;100.00;94934.06;1019016;28;20035;-75
2023/11/29 00:38:41;;;;;;;0.20;0.20;;;;;;;-3.76;100.00;94938.59;1027276;28;20019;-74
2023/11/29 00:39:12;;;;;;;0.10;0.10;;;;;;;-3.76;100.00;94941.94;1030881;28;20581;-75
2023/11/29 00:39:42;;;;;;;0.33;0.33;;;;;;;-3.79;100.00;94942.31;1026653;28;20406;-76
2023/11/29 00:40:13;;;;;;;1.07;1.00;;;;;;;-3.82;100.00;94937.59;1023050;29;20118;-75
2023/11/29 00:40:44;;;;;;;0.30;0.30;;;;;;;-3.83;100.00;94941.13;1030736;28;20133;-75
2023/11/29 00:41:14;;;;;;;0.40;0.40;;;;;;;-3.82;100.00;94943.53;1032304;28;20336;-75
2023/11/29 00:41:44;;;;;;;0.10;0.10;;;;;;;-3.88;100.00;94933.25;1030289;28;20041;-75
2023/11/29 00:42:15;;;;;;;0.97;0.97;;;;;;;-3.81;100.00;94939.19;1018668;29;20035;-75
2023/11/29 00:42:45;;;;;;;0.20;0.20;;;;;;;-3.88;100.00;94934.03;1022957;28;20072;-75
2023/11/29 00:43:16;;;;;;;0.30;0.30;;;;;;;-3.85;100.00;94940.56;1022602;29;20043;-75
2023/11/29 00:43:46;;;;;;;0.53;0.53;;;;;;;-3.91;100.00;94933.63;1022839;29;20062;-76
2023/11/29 00:44:17;;;;;;;1.50;1.40;;;;;;;-3.94;100.00;94934.00;1022666;29;20028;-74
2023/11/29 00:44:49;;;;;;;0.10;0.10;;;;;;;-3.94;100.00;94934.81;1025975;28;20034;-75
2023/11/29 00:45:19;;;;;;;0.73;0.73;;;;;;;-3.90;100.00;94940.31;1018795;29;20031;-75
2023/11/29 00:45:49;;;;;;;0.30;0.30;;;;;;;-3.90;100.00;94937.75;1026636;28;20034;-75
2023/11/29 00:46:20;;;;;;;1.60;0.97;;;;;;;-3.97;100.00;94929.28;1028864;28;20030;-76
2023/11/29 00:46:50;;;;;;;0.63;0.63;;;;;;;-3.93;100.00;94940.72;1030965;28;20061;-75
2023/11/29 00:47:21;;;;;;;0.17;0.17;;;;;;;-3.94;100.00;94939.13;1028801;28;20096;-74
2023/11/29 00:47:51;;;;;;;1.00;1.00;;;;;;;-3.95;100.00;94942.69;1019180;29;20027;-75
2023/11/29 00:48:22;;;;;;;0.83;0.83;;;;;;;-3.96;100.00;94946.22;1022959;28;20034;-75
2023/11/29 00:48:52;;;;;;;0.53;0.53;;;;;;;-4.03;100.00;94931.59;1022542;28;20035;-75
2023/11/29 00:49:23;;;;;;;1.30;1.03;;;;;;;-4.13;100.00;94920.13;1022527;28;20110;-75
2023/11/29 00:49:53;;;;;;;0.20;0.20;;;;;;;-3.97;100.00;94942.88;1019266;29;20031;-76
2023/11/29 00:50:24;;;;;;;0.90;0.73;;;;;;;-4.00;100.00;94940.69;1024607;28;20031;-75
2023/11/29 00:50:54;;;;;;;0.77;0.77;;;;;;;-3.98;100.00;94945.63;1031021;28;20052;-73
2023/11/29 00:51:26;;;;;;;1.93;1.17;;;;;;;-4.04;100.00;94939.50;1024725;28;20041;-76
2023/11/29 00:51:56;;;;;;;0.57;0.57;;;;;;;-4.01;100.00;94944.25;1021766;29;20059;-76
2023/11/29 00:52:27;;;;;;;0.77;0.77;;;;;;;-4.05;100.00;94941.28;1023464;28;20103;-75
2023/11/29 00:52:58;;;;;;;0.40;0.40;;;;;;;-4.06;100.00;94944.81;1026628;28;20027;-75
2023/11/29 00:53:28;;;;;;;0.93;0.93;;;;;;;-4.22;100.00;94929.78;1025854;28;20015;-77
2023/11/29 00:53:59;;;;;;;1.30;1.07;;;;;;;-4.09;100.00;94946.94;1018833;29;20100;-75
2023/11/29 00:54:29;;;;;;;1.20;1.10;;;;;;;-4.09;100.00;94942.63;1021525;29;20593;-75
2023/11/29 00:55:00;;;;;;;0.10;0.10;;;;;;;-4.06;100.00;94944.00;1019853;28;20505;-76
2023/11/29 00:55:30;;;;;;;0.77;0.63;;;;;;;-4.06;100.00;94947.38;1018510;29;20072;-76
2023/11/29 00:56:00;;;;;;;0.73;0.73;;;;;;;-4.04;100.00;94950.53;1022798;28;20083;-76
2023/11/29 00:56:31;;;;;;;0.10;0.10;;;;;;;-4.11;100.00;94942.03;1026894;28;20026;-76
2023/11/29 00:57:01;;;;;;;0.50;0.50;;;;;;;-4.06;100.00;94949.94;1023069;28;20094;-75
2023/11/29 00:57:32;;;;;;;0.40;0.40;;;;;;;-4.04;100.00;94955.66;1027021;28;20101;-75
2023/11/29 00:58:02;;;;;;;0.20;0.20;;;;;;;-4.08;100.00;94943.44;1031170;28;20037;-75
2023/11/29 00:58:33;;;;;;;0.33;0.33;;;;;;;-4.08;100.00;94946.78;1027506;28;20034;-76
2023/11/29 00:59:03;;;;;;;0.37;0.37;;;;;;;-4.12;100.00;94944.78;1035315;28;20033;-76
2023/11/29 00:59:34;;;;;;;0.37;0.37;;;;;;;-4.08;100.00;94944.22;1030456;28;20026;-76
2023/11/29 01:00:05;;;;;;;0.10;0.10;;;;;;;-4.11;100.00;94939.47;1034864;28;20026;-75
2023/11/29 01:00:36;;;;;;;0.65;0.50;;;;;;;-4.08;100.00;94944.22;1026765;28;20042;-76
2023/11/29 01:01:06;;;;;;;0.37;0.37;;;;;;;-4.04;100.00;94953.09;1022135;28;20043;-75
2023/11/29 01:01:36;;;;;;;0.40;0.40;;;;;;;-4.05;100.00;94943.03;1026279;28;20035;-76
2023/11/29 01:02:07;;;;;;;0.30;0.30;;;;;;;-3.99;100.00;94951.72;1026598;28;20038;-77
2023/11/29 01:02:37;;;;;;;0.10;0.10;;;;;;;-4.08;100.00;94949.34;1026663;28;20511;-76
2023/11/29 01:03:08;;;;;;;0.10;0.10;;;;;;;-4.07;100.00;94950.91;1026412;28;20026;-75
2023/11/29 01:03:38;;;;;;;0.20;0.20;;;;;;;-3.99;100.00;94959.41;1022359;29;20041;-75
2023/11/29 01:04:09;;;;;;;0.10;0.10;;;;;;;-4.03;100.00;94951.31;1022647;29;20038;-76
2023/11/29 01:04:39;;;;;;;0.27;0.27;;;;;;;-3.98;100.00;94961.00;1024972;28;20494;-76
2023/11/29 01:05:10;;;;;;;0.60;0.37;;;;;;;-3.99;100.00;94949.16;1026532;28;20510;-75
2023/11/29 01:05:40;;;;;;;0.33;0.33;;;;;;;-3.91;100.00;94959.25;1019454;29;20043;-76
2023/11/29 01:06:11;;;;;;;0.50;0.50;;;;;;;-3.93;100.00;94956.09;1022691;29;20101;-75
2023/11/29 01:06:41;;;;;;;0.40;0.40;;;;;;;-3.91;100.00;94959.25;1026874;28;20034;-76
2023/11/29 01:07:12;;;;;;;0.20;0.20;;;;;;;-4.03;100.00;94946.97;1026812;28;20031;-75
2023/11/29 01:07:42;;;;;;;0.33;0.33;;;;;;;-3.93;100.00;94956.09;1026707;28;20057;-75
2023/11/29 01:08:13;;;;;;;0.97;0.97;;;;;;;-3.88;100.00;94957.09;1023163;28;20035;-76
2023/11/29 01:08:43;;;;;;;0.47;0.47;;;;;;;-3.85;100.00;94955.94;1030794;28;20038;-76
2023/11/29 01:09:14;;;;;;;1.40;1.17;;;;;;;-3.81;100.00;94960.47;1027144;28;20031;-75
2023/11/29 01:09:44;;;;;;;2.20;1.37;;;;;;;-3.78;100.00;94967.00;1031045;28;20041;-77
2023/11/29 01:10:15;;;;;;;1.10;0.70;;;;;;;-3.80;100.00;94961.25;1030601;28;20092;-75
2023/11/29 01:10:45;;;;;;;0.40;0.40;;;;;;;-3.80;100.00;94962.03;1022664;28;20031;-77
2023/11/29 01:11:16;;;;;;;1.57;1.47;;;;;;;-3.86;100.00;94955.13;1019087;29;20028;-76
2023/11/29 01:11:46;;;;;;;0.20;0.20;;;;;;;-3.77;100.00;94968.56;1014474;29;20032;-75
2023/11/29 01:12:17;;;;;;;1.13;1.03;;;;;;;-3.76;100.00;94964.22;1021729;28;20031;-75
2023/11/29 01:12:47;;;;;;;1.10;1.10;;;;;;;-3.75;100.00;94964.03;1027032;28;20035;-76
2023/11/29 01:13:19;;;;;;;0.40;0.40;;;;;;;-3.72;100.00;94968.78;1023701;28;20027;-76
2023/11/29 01:13:50;;;;;;;0.40;0.40;;;;;;;-3.74;100.00;94962.28;1018964;29;20583;-78
2023/11/29 01:14:20;;;;;;;0.17;0.17;;;;;;;-3.73;100.00;94962.06;1019495;29;20036;-76
2023/11/29 01:14:51;;;;;;;1.17;1.17;;;;;;;-3.65;100.00;94968.81;1023730;29;20059;-75
2023/11/29 01:15:21;;;;;;;0.40;0.40;;;;;;;-3.62;100.00;94969.22;1020219;29;20035;-74
2023/11/29 01:15:52;;;;;;;1.20;0.73;;;;;;;-3.62;100.00;94974.34;1026957;28;20613;-76
2023/11/29 01:16:22;;;;;;;4.47;1.13;;;;;;;-3.67;100.00;94961.28;1026934;28;20070;-75
2023/11/29 01:16:53;;;;;;;1.37;0.93;;;;;;;-3.57;100.00;94976.31;1031362;28;20014;-76
2023/11/29 01:17:23;;;;;;;3.53;1.07;;;;;;;-3.53;100.00;94976.72;1026793;28;20405;-75
2023/11/29 01:17:55;;;;;;;0.10;0.10;;;;;;;-3.50;100.00;94976.31;1030757;28;20042;-78
2023/11/29 01:18:27;;;;;;;0.55;0.55;;;;;;;-3.51;100.00;94965.28;1027015;28;20037;-76
2023/11/29 01:18:59;;;;;;;1.55;1.35;;;;;;;-3.47;100.00;94965.69;1022578;29;20027;-76
2023/11/29 01:19:30;;;;;;;1.85;1.67;;;;;;;-3.49;100.00;94972.78;1025634;28;20027;-76
2023/11/29 01:20:00;;;;;;;0.47;0.47;;;;;;;-3.43;100.00;94974.56;1030712;28;20038;-75
2023/11/29 01:20:30;;;;;;;0.10;0.10;;;;;;;-3.41;100.00;94975.16;1026501;28;20027;-75
2023/11/29 01:21:01;;;;;;;0.50;0.50;;;;;;;-3.45;100.00;94966.28;1034304;28;20125;-75
2023/11/29 01:21:33;;;;;;;0.10;0.10;;;;;;;-3.42;100.00;94976.13;1031579;28;20410;-75
2023/11/29 01:22:04;;;;;;;0.70;0.70;;;;;;;-3.37;100.00;94971.22;1031104;28;20081;-74
2023/11/29 01:22:34;;;;;;;1.20;1.20;;;;;;;-3.36;100.00;94977.94;1026408;28;20078;-76
2023/11/29 01:23:05;;;;;;;0.40;0.40;;;;;;;-3.42;100.00;94960.75;1018655;29;20122;-77
2023/11/29 01:23:36;;;;;;;0.70;0.70;;;;;;;-3.37;100.00;94974.59;1018909;29;20022;-76
2023/11/29 01:24:07;;;;;;;1.17;1.08;;;;;;;-3.40;100.00;94972.41;1018631;29;20077;-75
2023/11/29 01:24:38;;;;;;;0.67;0.60;;;;;;;-3.38;100.00;94964.53;1022321;29;20499;-76
2023/11/29 01:25:09;;;;;;;0.10;0.10;;;;;;;-3.37;100.00;94971.22;1019510;28;20405;-76
2023/11/29 01:25:39;;;;;;;0.45;0.45;;;;;;;-3.37;100.00;94964.31;1022676;29;20372;-74
2023/11/29 01:26:10;;;;;;;0.30;0.30;;;;;;;-3.37;100.00;94966.88;1026530;28;20100;-76
2023/11/29 01:26:40;;;;;;;0.93;0.73;;;;;;;-3.38;100.00;94967.88;1026650;28;20039;-76
2023/11/29 01:27:11;;;;;;;0.70;0.70;;;;;;;-3.40;100.00;94972.41;1022647;28;20376;-75
2023/11/29 01:27:42;;;;;;;0.10;0.10;;;;;;;-3.40;100.00;94971.63;1017526;29;20039;-74
2023/11/29 01:28:12;;;;;;;0.47;0.47;;;;;;;-3.41;100.00;94963.13;1018520;29;20036;-75
2023/11/29 01:28:43;;;;;;;0.33;0.33;;;;;;;-3.42;100.00;94964.13;1018742;29;20024;-73
2023/11/29 01:29:14;;;;;;;0.87;0.83;;;;;;;-3.42;100.00;94969.25;1019242;28;20059;-75
2023/11/29 01:29:44;;;;;;;1.23;1.13;;;;;;;-3.45;100.00;94959.38;1030738;28;20034;-75
2023/11/29 01:30:15;;;;;;;0.73;0.73;;;;;;;-3.44;100.00;94965.31;1023045;29;20035;-76
2023/11/29 01:30:45;;;;;;;0.50;0.50;;;;;;;-3.49;100.00;94957.38;1025576;29;20035;-76
2023/11/29 01:31:18;;;;;;;1.93;1.80;;;;;;;-3.48;100.00;94956.44;1029967;28;20046;-76
2023/11/29 01:31:48;;;;;;;0.30;0.30;;;;;;;-3.49;100.00;94957.38;1037028;28;20061;-76
2023/11/29 01:32:19;;;;;;;0.53;0.53;;;;;;;-3.45;100.00;94956.03;1036025;28;20033;-76
2023/11/29 01:32:49;;;;;;;0.40;0.40;;;;;;;-3.46;100.00;94954.44;1033059;28;20489;-76
2023/11/29 01:33:20;;;;;;;0.33;0.33;;;;;;;-3.53;100.00;94946.72;1031203;28;20064;-74
2023/11/29 01:33:51;;;;;;;0.40;0.40;;;;;;;-3.47;100.00;94956.22;1023490;29;20031;-77
2023/11/29 01:34:21;;;;;;;3.77;0.83;;;;;;;-3.52;100.00;94944.94;1025693;28;20027;-73
2023/11/29 01:34:52;;;;;;;1.60;0.50;;;;;;;-3.48;100.00;94956.44;1027448;28;20039;-76
2023/11/29 01:35:23;;;;;;;0.38;0.38;;;;;;;-3.56;100.00;94942.78;1027376;28;20034;-75
2023/11/29 01:35:54;;;;;;;0.67;0.67;;;;;;;-3.51;100.00;94954.25;1023237;28;20042;-74
2023/11/29 01:36:24;;;;;;;0.10;0.10;;;;;;;-3.58;100.00;94944.75;1023109;28;20079;-75
2023/11/29 01:36:55;;;;;;;1.13;1.10;;;;;;;-3.59;100.00;94945.75;1022574;29;20074;-76
2023/11/29 01:37:25;;;;;;;0.93;0.83;;;;;;;-3.57;100.00;94955.81;1023287;28;20055;-75
2023/11/29 01:37:56;;;;;;;0.13;0.13;;;;;;;-3.56;100.00;94953.03;1018547;29;20027;-75
2023/11/29 01:38:26;;;;;;;1.33;0.90;;;;;;;-3.61;100.00;94944.38;1019022;29;20024;-75
2023/11/29 01:38:57;;;;;;;0.93;0.93;;;;;;;-3.60;100.00;94946.72;1018581;29;20138;-74
2023/11/29 01:39:27;;;;;;;1.07;0.40;;;;;;;-3.57;100.00;94951.47;1022657;28;20027;-75
2023/11/29 01:39:58;;;;;;;1.57;1.47;;;;;;;-3.59;100.00;94945.75;1022975;28;20035;-75
2023/11/29 01:40:28;;;;;;;0.93;0.87;;;;;;;-3.65;100.00;94935.47;1018414;29;20031;-77
2023/11/29 01:40:58;;;;;;;0.77;0.73;;;;;;;-3.58;100.00;94944.75;1014556;29;20035;-75
2023/11/29 01:41:29;;;;;;;0.83;0.83;;;;;;;-3.58;100.00;94944.75;1022870;29;20038;-75
2023/11/29 01:41:59;;;;;;;0.47;0.47;;;;;;;-3.61;100.00;94939.22;1018283;29;20326;-75
2023/11/29 01:42:30;;;;;;;0.23;0.23;;;;;;;-3.64;100.00;94940.41;1022910;28;20443;-75
2023/11/29 01:43:00;;;;;;;1.03;0.57;;;;;;;-3.58;100.00;94949.88;1022367;29;20062;-76
2023/11/29 01:43:31;;;;;;;0.70;0.70;;;;;;;-3.61;100.00;94949.50;1018460;29;20030;-75
2023/11/29 01:44:01;;;;;;;1.03;1.03;;;;;;;-3.67;100.00;94935.66;1023085;29;20399;-75
2023/11/29 01:44:32;;;;;;;0.63;0.63;;;;;;;-3.64;100.00;94944.75;1022171;29;20079;-75
2023/11/29 01:45:03;;;;;;;0.10;0.10;;;;;;;-3.62;100.00;94958.97;1030460;28;20022;-75
2023/11/29 01:45:34;;;;;;;0.20;0.20;;;;;;;-3.71;100.00;94934.47;1030639;28;20038;-76
2023/11/29 01:46:04;;;;;;;0.97;0.93;;;;;;;-3.67;100.00;94940.00;1026319;28;20039;-74
2023/11/29 01:46:35;;;;;;;0.77;0.77;;;;;;;-3.66;100.00;94942.34;1030705;28;20113;-75
2023/11/29 01:47:09;;;;;;;0.93;0.93;;;;;;;-3.70;100.00;94940.38;1030503;28;20110;-75
2023/11/29 01:47:40;;;;;;;1.65;0.55;;;;;;;-3.65;100.00;94954.22;1022627;29;20604;-75
2023/11/29 01:48:10;;;;;;;0.70;0.70;;;;;;;-3.64;100.00;94944.75;1018618;29;20090;-75
2023/11/29 01:48:41;;;;;;;1.17;1.07;;;;;;;-3.67;100.00;94945.91;1015205;29;20088;-76
2023/11/29 01:49:11;;;;;;;0.87;0.87;;;;;;;-3.68;100.00;94949.47;1022614;28;20027;-73
2023/11/29 01:49:41;;;;;;;1.07;0.97;;;;;;;-3.66;100.00;94947.50;1028952;28;20070;-75
2023/11/29 01:50:12;;;;;;;0.93;0.93;;;;;;;-3.68;100.00;94954.59;1018489;29;20061;-75
2023/11/29 01:50:45;;;;;;;1.20;1.10;;;;;;;-3.84;100.00;94931.88;1014987;29;20706;-76
2023/11/29 01:51:15;;;;;;;1.02;1.02;;;;;;;-3.68;100.00;94941.00;1017613;29;20063;-75
2023/11/29 01:51:48;;;;;;;0.53;0.30;;;;;;;-3.69;100.00;94940.22;1018046;29;20031;-74
2023/11/29 01:52:19;;;;;;;1.25;0.95;;;;;;;-3.66;100.00;94941.56;1027617;28;20023;-75
2023/11/29 01:52:49;;;;;;;0.40;0.40;;;;;;;-3.62;100.00;94953.81;1034852;28;20045;-74
2023/11/29 01:53:22;;;;;;;0.30;0.30;;;;;;;-3.64;100.00;94948.09;1027583;28;20034;-75
2023/11/29 01:53:53;;;;;;;0.10;0.10;;;;;;;-3.58;100.00;94951.66;1026808;28;20102;-76
2023/11/29 01:54:23;;;;;;;0.43;0.43;;;;;;;-3.61;100.00;94944.38;1026447;28;20030;-74
2023/11/29 01:54:54;;;;;;;0.93;0.90;;;;;;;-3.67;100.00;94935.66;1029245;28;20533;-75
2023/11/29 01:55:24;;;;;;;0.73;0.73;;;;;;;-3.57;100.00;94946.34;1022398;29;20763;-76
2023/11/29 01:55:56;;;;;;;0.40;0.40;;;;;;;-3.59;100.00;94935.50;1026533;28;20019;-75
2023/11/29 01:56:26;;;;;;;1.48;1.40;;;;;;;-3.52;100.00;94950.06;1032211;28;20022;-75
2023/11/29 01:56:57;;;;;;;0.40;0.40;;;;;;;-3.51;100.00;94944.78;1030566;28;20034;-76
2023/11/29 01:57:27;;;;;;;1.13;1.10;;;;;;;-3.51;100.00;94944.00;1022439;29;20418;-75
2023/11/29 01:57:58;;;;;;;0.23;0.23;;;;;;;-3.56;100.00;94934.31;1018759;29;20031;-75
2023/11/29 01:58:28;;;;;;;0.70;0.70;;;;;;;-3.49;100.00;94949.69;1028555;28;20039;-76
2023/11/29 01:58:59;;;;;;;0.73;0.73;;;;;;;-3.49;100.00;94942.00;1030997;28;20474;-75
2023/11/29 01:59:29;;;;;;;0.37;0.37;;;;;;;-3.49;100.00;94939.44;1027662;28;20030;-75
2023/11/29 02:00:00;;;;;;;0.73;0.73;;;;;;;-3.50;100.00;94946.34;1026553;28;20039;-74
2023/11/29 02:00:30;;;;;;;1.60;1.23;;;;;;;-3.57;100.00;94925.81;1026595;28;20035;-74
2023/11/29 02:01:01;;;;;;;0.60;0.60;;;;;;;-3.57;100.00;94928.38;1025967;28;20035;-76
2023/11/29 02:01:31;;;;;;;2.17;1.93;;;;;;;-3.56;100.00;94932.53;1022083;29;20028;-74
2023/11/29 02:02:02;;;;;;;0.83;0.83;;;;;;;-3.49;100.00;94942.78;1028581;28;20034;-74
2023/11/29 02:02:32;;;;;;;0.20;0.20;;;;;;;-3.49;100.00;94937.66;1029493;28;20655;-76
2023/11/29 02:03:03;;;;;;;0.93;0.40;;;;;;;-3.48;100.00;94941.03;1018763;29;20039;-75
2023/11/29 02:03:33;;;;;;;1.23;1.23;;;;;;;-3.50;100.00;94936.09;1016737;29;20122;-75
2023/11/29 02:04:04;;;;;;;1.07;1.07;;;;;;;-3.55;100.00;94928.22;1022387;29;20126;-77
2023/11/29 02:04:34;;;;;;;0.40;0.40;;;;;;;-3.47;100.00;94940.03;1026887;28;20022;-76
2023/11/29 02:05:05;;;;;;;0.50;0.50;;;;;;;-3.49;100.00;94932.53;1022549;29;20027;-75
2023/11/29 02:05:35;;;;;;;1.73;1.63;;;;;;;-3.52;100.00;94927.00;1022168;29;20027;-75
2023/11/29 02:06:07;;;;;;;0.67;0.67;;;;;;;-3.50;100.00;94925.84;1023001;29;20035;-75
2023/11/29 02:06:37;;;;;;;1.60;1.50;;;;;;;-3.46;100.00;94936.50;1030044;28;20092;-73
2023/11/29 02:07:08;;;;;;;0.57;0.57;;;;;;;-3.48;100.00;94928.22;1024266;28;20613;-72
2023/11/29 02:07:39;;;;;;;0.77;0.77;;;;;;;-3.44;100.00;94935.31;1022442;28;20034;-76
2023/11/29 02:08:09;;;;;;;0.57;0.57;;;;;;;-3.51;100.00;94923.47;1022531;29;20538;-75
2023/11/29 02:08:40;;;;;;;0.30;0.30;;;;;;;-3.48;100.00;94925.66;1022914;28;20122;-76
2023/11/29 02:09:10;;;;;;;1.50;0.90;;;;;;;-3.44;100.00;94934.53;1022408;28;20031;-77
2023/11/29 02:09:41;;;;;;;0.33;0.33;;;;;;;-3.41;100.00;94931.56;1026539;28;20070;-72
2023/11/29 02:10:11;;;;;;;1.77;1.67;;;;;;;-3.41;100.00;94932.38;1022808;28;20039;-75
2023/11/29 02:10:42;;;;;;;2.40;1.33;;;;;;;-3.43;100.00;94933.53;1022428;29;20035;-73
2023/11/29 02:11:13;;;;;;;1.13;1.10;;;;;;;-3.39;100.00;94935.50;1018873;29;20020;-76
2023/11/29 02:11:44;;;;;;;2.55;0.63;;;;;;;-3.42;100.00;94927.41;1025972;28;20026;-75
2023/11/29 02:12:14;;;;;;;0.23;0.23;;;;;;;-3.38;100.00;94926.06;1030081;28;20034;-76
2023/11/29 02:12:45;;;;;;;3.10;1.90;;;;;;;-3.39;100.00;94924.47;1026946;28;20023;-75
2023/11/29 02:13:15;;;;;;;0.23;0.23;;;;;;;-3.35;100.00;94933.38;1023086;28;20112;-73
2023/11/29 02:13:46;;;;;;;2.87;2.50;;;;;;;-3.36;100.00;94929.19;1022449;29;20035;-75
2023/11/29 02:14:16;;;;;;;0.93;0.93;;;;;;;-3.27;100.00;94937.50;1023396;28;20031;-73
2023/11/29 02:14:47;;;;;;;1.40;0.57;;;;;;;-3.24;100.00;94935.34;1022475;29;20122;-75
2023/11/29 02:15:17;;;;;;;1.30;1.20;;;;;;;-3.28;100.00;94933.38;1027664;28;20118;-76
2023/11/29 02:15:47;;;;;;;0.70;0.70;;;;;;;-3.24;100.00;94935.34;1030256;28;20031;-75
2023/11/29 02:16:18;;;;;;;1.33;0.87;;;;;;;-3.26;100.00;94934.72;1026266;28;20102;-75
2023/11/29 02:16:48;;;;;;;1.20;0.83;;;;;;;-3.34;100.00;94924.69;1022784;29;20030;-76
2023/11/29 02:17:19;;;;;;;1.53;0.73;;;;;;;-3.22;100.00;94943.63;1026183;28;20023;-76
2023/11/29 02:17:50;;;;;;;1.43;1.33;;;;;;;-3.24;100.00;94945.59;1022396;29;20034;-75
2023/11/29 02:18:20;;;;;;;0.80;0.80;;;;;;;-3.20;100.00;94946.78;1020121;29;20604;-75
2023/11/29 02:18:51;;;;;;;1.07;1.07;;;;;;;-3.20;100.00;94948.56;1022215;29;20034;-76
2023/11/29 02:19:21;;;;;;;0.67;0.67;;;;;;;-3.23;100.00;94942.03;1018285;29;20483;-75
2023/11/29 02:19:52;;;;;;;0.30;0.30;;;;;;;-3.21;100.00;94941.84;1026242;28;20019;-75
2023/11/29 02:20:22;;;;;;;0.73;0.73;;;;;;;-3.28;100.00;94934.16;1030155;28;20018;-75
2023/11/29 02:20:52;;;;;;;1.57;1.47;;;;;;;-3.23;100.00;94936.13;1032996;28;20022;-75
2023/11/29 02:21:25;;;;;;;1.63;1.50;;;;;;;-3.18;100.00;94944.81;1024092;28;20082;-76
2023/11/29 02:21:56;;;;;;;1.48;1.27;;;;;;;-3.25;100.00;94931.19;1021773;29;20023;-76
2023/11/29 02:22:27;;;;;;;0.53;0.53;;;;;;;-3.24;100.00;94937.91;1020766;29;20484;-75